sensor_id;sensor_type;location;lat;lon;timestamp;temperature;humidity
37289;DHT22;23174;49.462;11.000;2023-06-01T00:01:59;19.20;99.90
37289;DHT22;23174;49.462;11.000;2023-06-01T00:03:59;19.10;99.90
37289;DHT22;23174;49.462;11.000;2023-06-01T00:06:00;19.10;99.90
37289;DHT22;23174;49.462;11.000;2023-06-01T00:08:00;19.10;99.90
37289;DHT22;23174;49.462;11.000;2023-06-01T00:10:01;19.10;99.90
37289;DHT22;23174;49.462;11.000;2023-06-01T00:12:02;19.10;99.90
37289;DHT22;23174;49.462;11.000;2023-06-01T00:14:03;19.10;99.90
37289;DHT22;23174;49.462;11.000;2023-06-01T00:16:04;19.10;99.90
37289;DHT22;23174;49.462;11.000;2023-06-01T00:18:04;19.10;99.90
37289;DHT22;23174;49.462;11.000;2023-06-01T00:20:06;19.00;99.90
37289;DHT22;23174;49.462;11.000;2023-06-01T00:22:08;19.20;99.90
37289;DHT22;23174;49.462;11.000;2023-06-01T00:24:08;19.00;99.90
37289;DHT22;23174;49.462;11.000;2023-06-01T00:26:09;19.00;99.90
37289;DHT22;23174;49.462;11.000;2023-06-01T00:28:10;19.00;99.90
37289;DHT22;23174;49.462;11.000;2023-06-01T00:30:11;19.00;99.90
37289;DHT22;23174;49.462;11.000;2023-06-01T00:32:12;19.10;99.90
37289;DHT22;23174;49.462;11.000;2023-06-01T00:34:12;19.10;99.90
37289;DHT22;23174;49.462;11.000;2023-06-01T00:36:13;19.00;99.90
37289;DHT22;23174;49.462;11.000;2023-06-01T00:38:13;19.00;99.90
37289;DHT22;23174;49.462;11.000;2023-06-01T00:40:13;19.00;99.90
37289;DHT22;23174;49.462;11.000;2023-06-01T00:42:14;19.00;99.90
37289;DHT22;23174;49.462;11.000;2023-06-01T00:44:15;18.90;99.90
37289;DHT22;23174;49.462;11.000;2023-06-01T00:46:15;18.80;99.90
37289;DHT22;23174;49.462;11.000;2023-06-01T00:48:16;18.70;99.90
37289;DHT22;23174;49.462;11.000;2023-06-01T00:50:18;18.80;99.90
37289;DHT22;23174;49.462;11.000;2023-06-01T00:52:20;18.60;99.90
37289;DHT22;23174;49.462;11.000;2023-06-01T00:54:21;18.60;99.90
37289;DHT22;23174;49.462;11.000;2023-06-01T00:56:22;18.70;99.90
37289;DHT22;23174;49.462;11.000;2023-06-01T00:58:22;18.60;99.90
37289;DHT22;23174;49.462;11.000;2023-06-01T01:00:24;18.50;99.90
37289;DHT22;23174;49.462;11.000;2023-06-01T01:02:26;18.40;99.90
37289;DHT22;23174;49.462;11.000;2023-06-01T01:04:30;18.40;99.90
37289;DHT22;23174;49.462;11.000;2023-06-01T01:06:45;18.40;99.90
37289;DHT22;23174;49.462;11.000;2023-06-01T01:09:48;18.40;99.90
37289;DHT22;23174;49.462;11.000;2023-06-01T01:11:30;18.30;99.90
37289;DHT22;23174;49.462;11.000;2023-06-01T01:13:47;18.30;99.90
37289;DHT22;23174;49.462;11.000;2023-06-01T01:16:05;18.30;99.90
37289;DHT22;23174;49.462;11.000;2023-06-01T01:18:14;18.40;99.90
37289;DHT22;23174;49.462;11.000;2023-06-01T01:20:22;18.40;99.90
37289;DHT22;23174;49.462;11.000;2023-06-01T01:28:25;18.20;99.90
37289;DHT22;23174;49.462;11.000;2023-06-01T01:30:22;18.20;99.90
37289;DHT22;23174;49.462;11.000;2023-06-01T01:32:26;18.10;99.90
37289;DHT22;23174;49.462;11.000;2023-06-01T01:34:28;18.10;99.90
37289;DHT22;23174;49.462;11.000;2023-06-01T01:36:30;18.10;99.90
37289;DHT22;23174;49.462;11.000;2023-06-01T01:38:34;18.10;99.90
37289;DHT22;23174;49.462;11.000;2023-06-01T01:40:35;18.10;99.90
37289;DHT22;23174;49.462;11.000;2023-06-01T01:42:35;18.00;99.90
37289;DHT22;23174;49.462;11.000;2023-06-01T01:44:36;18.00;99.90
37289;DHT22;23174;49.462;11.000;2023-06-01T01:46:52;17.90;99.90
37289;DHT22;23174;49.462;11.000;2023-06-01T01:49:00;17.90;99.90
37289;DHT22;23174;49.462;11.000;2023-06-01T01:51:07;18.00;99.90
37289;DHT22;23174;49.462;11.000;2023-06-01T01:53:09;18.10;99.90
37289;DHT22;23174;49.462;11.000;2023-06-01T01:55:11;18.10;99.90
37289;DHT22;23174;49.462;11.000;2023-06-01T01:57:13;18.10;99.90
37289;DHT22;23174;49.462;11.000;2023-06-01T01:59:17;18.10;99.90
37289;DHT22;23174;49.462;11.000;2023-06-01T02:01:18;18.00;99.90
37289;DHT22;23174;49.462;11.000;2023-06-01T02:03:19;18.00;99.90
37289;DHT22;23174;49.462;11.000;2023-06-01T02:05:20;18.00;99.90
37289;DHT22;23174;49.462;11.000;2023-06-01T02:07:20;18.00;99.90
37289;DHT22;23174;49.462;11.000;2023-06-01T02:09:21;18.10;99.90
37289;DHT22;23174;49.462;11.000;2023-06-01T02:11:22;18.00;99.90
37289;DHT22;23174;49.462;11.000;2023-06-01T02:13:22;17.90;99.90
37289;DHT22;23174;49.462;11.000;2023-06-01T02:15:22;18.00;99.90
37289;DHT22;23174;49.462;11.000;2023-06-01T02:17:23;17.90;99.90
37289;DHT22;23174;49.462;11.000;2023-06-01T02:19:25;17.90;99.90
37289;DHT22;23174;49.462;11.000;2023-06-01T02:21:26;18.00;99.90
37289;DHT22;23174;49.462;11.000;2023-06-01T02:23:26;17.90;99.90
37289;DHT22;23174;49.462;11.000;2023-06-01T02:25:27;18.00;99.90
37289;DHT22;23174;49.462;11.000;2023-06-01T02:27:27;17.90;99.90
37289;DHT22;23174;49.462;11.000;2023-06-01T02:29:28;17.80;99.90
37289;DHT22;23174;49.462;11.000;2023-06-01T02:31:28;17.90;99.90
37289;DHT22;23174;49.462;11.000;2023-06-01T02:33:29;17.90;99.90
37289;DHT22;23174;49.462;11.000;2023-06-01T02:35:29;17.80;99.90
37289;DHT22;23174;49.462;11.000;2023-06-01T02:37:29;17.80;99.90
37289;DHT22;23174;49.462;11.000;2023-06-01T02:39:30;17.80;99.90
37289;DHT22;23174;49.462;11.000;2023-06-01T02:41:30;17.80;99.90
37289;DHT22;23174;49.462;11.000;2023-06-01T02:43:36;17.80;99.90
37289;DHT22;23174;49.462;11.000;2023-06-01T02:45:36;17.70;99.90
37289;DHT22;23174;49.462;11.000;2023-06-01T02:47:37;17.70;99.90
37289;DHT22;23174;49.462;11.000;2023-06-01T02:49:37;17.70;99.90
37289;DHT22;23174;49.462;11.000;2023-06-01T02:51:37;17.70;99.90
37289;DHT22;23174;49.462;11.000;2023-06-01T02:53:42;17.60;99.90
37289;DHT22;23174;49.462;11.000;2023-06-01T02:55:42;17.60;99.90
37289;DHT22;23174;49.462;11.000;2023-06-01T02:57:43;17.60;99.90
37289;DHT22;23174;49.462;11.000;2023-06-01T02:59:43;17.60;99.90
37289;DHT22;23174;49.462;11.000;2023-06-01T03:01:44;17.50;99.90
37289;DHT22;23174;49.462;11.000;2023-06-01T03:03:44;17.50;99.90
37289;DHT22;23174;49.462;11.000;2023-06-01T03:05:45;17.50;99.90
37289;DHT22;23174;49.462;11.000;2023-06-01T03:07:48;17.50;99.90
37289;DHT22;23174;49.462;11.000;2023-06-01T03:09:48;17.50;99.90
37289;DHT22;23174;49.462;11.000;2023-06-01T03:11:49;17.50;99.90
37289;DHT22;23174;49.462;11.000;2023-06-01T03:13:49;17.50;99.90
37289;DHT22;23174;49.462;11.000;2023-06-01T03:15:50;17.30;99.90
37289;DHT22;23174;49.462;11.000;2023-06-01T03:17:51;17.30;99.90
37289;DHT22;23174;49.462;11.000;2023-06-01T03:19:51;17.30;99.90
37289;DHT22;23174;49.462;11.000;2023-06-01T03:21:52;17.20;99.90
37289;DHT22;23174;49.462;11.000;2023-06-01T03:23:52;17.30;99.90
37289;DHT22;23174;49.462;11.000;2023-06-01T03:25:53;17.40;99.90
37289;DHT22;23174;49.462;11.000;2023-06-01T03:27:56;17.40;99.90
37289;DHT22;23174;49.462;11.000;2023-06-01T03:29:59;17.40;99.90
37289;DHT22;23174;49.462;11.000;2023-06-01T03:32:01;17.30;99.90
37289;DHT22;23174;49.462;11.000;2023-06-01T03:34:02;17.30;99.90
37289;DHT22;23174;49.462;11.000;2023-06-01T03:36:02;17.30;99.90
37289;DHT22;23174;49.462;11.000;2023-06-01T03:38:04;17.10;99.90
37289;DHT22;23174;49.462;11.000;2023-06-01T03:40:05;17.00;99.90
37289;DHT22;23174;49.462;11.000;2023-06-01T03:42:12;17.00;99.90
37289;DHT22;23174;49.462;11.000;2023-06-01T03:44:12;17.10;99.90
37289;DHT22;23174;49.462;11.000;2023-06-01T03:46:13;17.10;99.90
37289;DHT22;23174;49.462;11.000;2023-06-01T03:48:13;17.10;99.90
37289;DHT22;23174;49.462;11.000;2023-06-01T03:50:14;17.10;99.90
37289;DHT22;23174;49.462;11.000;2023-06-01T03:52:14;17.20;99.90
37289;DHT22;23174;49.462;11.000;2023-06-01T03:54:19;17.30;99.90
37289;DHT22;23174;49.462;11.000;2023-06-01T03:56:19;17.30;99.90
37289;DHT22;23174;49.462;11.000;2023-06-01T03:58:20;17.40;99.90
37289;DHT22;23174;49.462;11.000;2023-06-01T04:00:21;17.50;99.90
37289;DHT22;23174;49.462;11.000;2023-06-01T04:02:23;17.40;99.90
37289;DHT22;23174;49.462;11.000;2023-06-01T04:04:26;17.40;99.90
37289;DHT22;23174;49.462;11.000;2023-06-01T04:06:28;17.40;99.90
37289;DHT22;23174;49.462;11.000;2023-06-01T04:08:29;17.30;99.90
37289;DHT22;23174;49.462;11.000;2023-06-01T04:10:30;17.30;99.90
37289;DHT22;23174;49.462;11.000;2023-06-01T04:12:31;17.30;99.90
37289;DHT22;23174;49.462;11.000;2023-06-01T04:14:31;17.30;99.90
37289;DHT22;23174;49.462;11.000;2023-06-01T04:16:32;17.40;99.90
37289;DHT22;23174;49.462;11.000;2023-06-01T04:18:32;17.50;99.90
37289;DHT22;23174;49.462;11.000;2023-06-01T04:20:33;17.40;99.90
37289;DHT22;23174;49.462;11.000;2023-06-01T04:22:36;17.40;99.90
37289;DHT22;23174;49.462;11.000;2023-06-01T04:24:36;17.40;99.90
37289;DHT22;23174;49.462;11.000;2023-06-01T04:26:37;17.40;99.90
37289;DHT22;23174;49.462;11.000;2023-06-01T04:28:37;17.40;99.90
37289;DHT22;23174;49.462;11.000;2023-06-01T04:30:43;17.50;99.90
37289;DHT22;23174;49.462;11.000;2023-06-01T04:32:45;17.50;99.90
37289;DHT22;23174;49.462;11.000;2023-06-01T04:34:48;17.40;99.90
37289;DHT22;23174;49.462;11.000;2023-06-01T04:36:51;17.40;99.90
37289;DHT22;23174;49.462;11.000;2023-06-01T04:38:52;17.40;99.90
37289;DHT22;23174;49.462;11.000;2023-06-01T04:40:57;17.40;99.90
37289;DHT22;23174;49.462;11.000;2023-06-01T04:42:57;17.40;99.90
37289;DHT22;23174;49.462;11.000;2023-06-01T04:44:58;17.40;99.90
37289;DHT22;23174;49.462;11.000;2023-06-01T04:46:58;17.50;99.90
37289;DHT22;23174;49.462;11.000;2023-06-01T04:49:03;17.50;99.90
37289;DHT22;23174;49.462;11.000;2023-06-01T04:51:05;17.50;99.90
37289;DHT22;23174;49.462;11.000;2023-06-01T04:53:05;17.60;99.90
37289;DHT22;23174;49.462;11.000;2023-06-01T04:55:07;17.60;99.90
37289;DHT22;23174;49.462;11.000;2023-06-01T04:57:08;17.60;99.90
37289;DHT22;23174;49.462;11.000;2023-06-01T04:59:08;17.60;99.90
37289;DHT22;23174;49.462;11.000;2023-06-01T05:01:08;17.60;99.90
37289;DHT22;23174;49.462;11.000;2023-06-01T05:03:09;17.70;99.90
37289;DHT22;23174;49.462;11.000;2023-06-01T05:05:10;17.70;99.90
37289;DHT22;23174;49.462;11.000;2023-06-01T05:07:11;17.70;99.90
37289;DHT22;23174;49.462;11.000;2023-06-01T05:09:11;17.80;99.90
37289;DHT22;23174;49.462;11.000;2023-06-01T05:11:14;17.70;99.90
37289;DHT22;23174;49.462;11.000;2023-06-01T05:13:14;17.70;99.90
37289;DHT22;23174;49.462;11.000;2023-06-01T05:15:15;17.70;99.90
37289;DHT22;23174;49.462;11.000;2023-06-01T05:17:16;17.80;99.90
37289;DHT22;23174;49.462;11.000;2023-06-01T05:19:17;17.70;99.90
37289;DHT22;23174;49.462;11.000;2023-06-01T05:21:17;17.70;99.90
37289;DHT22;23174;49.462;11.000;2023-06-01T05:23:18;17.70;99.90
37289;DHT22;23174;49.462;11.000;2023-06-01T05:25:18;17.90;99.90
37289;DHT22;23174;49.462;11.000;2023-06-01T05:27:18;18.10;99.90
37289;DHT22;23174;49.462;11.000;2023-06-01T05:29:19;18.10;99.90
37289;DHT22;23174;49.462;11.000;2023-06-01T05:31:20;18.10;99.90
37289;DHT22;23174;49.462;11.000;2023-06-01T05:33:21;18.20;99.90
37289;DHT22;23174;49.462;11.000;2023-06-01T05:35:22;18.10;99.90
37289;DHT22;23174;49.462;11.000;2023-06-01T05:37:22;18.10;99.90
37289;DHT22;23174;49.462;11.000;2023-06-01T05:39:23;18.10;99.90
37289;DHT22;23174;49.462;11.000;2023-06-01T05:41:28;18.20;99.90
37289;DHT22;23174;49.462;11.000;2023-06-01T05:43:28;18.30;99.90
37289;DHT22;23174;49.462;11.000;2023-06-01T05:45:29;18.40;99.90
37289;DHT22;23174;49.462;11.000;2023-06-01T05:47:30;18.40;99.90
37289;DHT22;23174;49.462;11.000;2023-06-01T05:49:30;18.30;99.90
37289;DHT22;23174;49.462;11.000;2023-06-01T05:51:31;18.40;99.90
37289;DHT22;23174;49.462;11.000;2023-06-01T05:53:37;18.40;99.90
37289;DHT22;23174;49.462;11.000;2023-06-01T05:55:37;18.40;99.90
37289;DHT22;23174;49.462;11.000;2023-06-01T05:57:38;18.50;99.90
37289;DHT22;23174;49.462;11.000;2023-06-01T05:59:38;18.50;99.90
37289;DHT22;23174;49.462;11.000;2023-06-01T06:01:42;18.50;99.90
37289;DHT22;23174;49.462;11.000;2023-06-01T06:03:44;18.70;99.90
37289;DHT22;23174;49.462;11.000;2023-06-01T06:05:45;18.70;99.90
37289;DHT22;23174;49.462;11.000;2023-06-01T06:07:46;18.80;99.90
37289;DHT22;23174;49.462;11.000;2023-06-01T06:09:58;18.80;99.90
37289;DHT22;23174;49.462;11.000;2023-06-01T06:11:58;18.90;99.90
37289;DHT22;23174;49.462;11.000;2023-06-01T06:13:59;18.90;99.90
37289;DHT22;23174;49.462;11.000;2023-06-01T06:16:00;18.90;99.90
37289;DHT22;23174;49.462;11.000;2023-06-01T06:18:09;19.00;99.90
37289;DHT22;23174;49.462;11.000;2023-06-01T06:20:10;19.00;99.90
37289;DHT22;23174;49.462;11.000;2023-06-01T06:22:11;19.00;99.90
37289;DHT22;23174;49.462;11.000;2023-06-01T06:24:14;19.00;99.90
37289;DHT22;23174;49.462;11.000;2023-06-01T06:26:15;19.00;99.90
37289;DHT22;23174;49.462;11.000;2023-06-01T06:28:15;19.10;99.90
37289;DHT22;23174;49.462;11.000;2023-06-01T06:30:16;19.20;99.90
37289;DHT22;23174;49.462;11.000;2023-06-01T06:32:17;19.20;99.90
37289;DHT22;23174;49.462;11.000;2023-06-01T06:34:22;19.20;99.90
37289;DHT22;23174;49.462;11.000;2023-06-01T06:36:23;19.30;99.90
37289;DHT22;23174;49.462;11.000;2023-06-01T06:38:23;19.30;99.90
37289;DHT22;23174;49.462;11.000;2023-06-01T06:40:24;19.40;99.90
37289;DHT22;23174;49.462;11.000;2023-06-01T06:42:25;19.40;99.90
37289;DHT22;23174;49.462;11.000;2023-06-01T06:44:25;19.40;99.90
37289;DHT22;23174;49.462;11.000;2023-06-01T06:46:26;19.50;99.90
37289;DHT22;23174;49.462;11.000;2023-06-01T06:48:36;19.50;99.90
37289;DHT22;23174;49.462;11.000;2023-06-01T06:50:36;19.60;99.90
37289;DHT22;23174;49.462;11.000;2023-06-01T06:52:37;19.60;99.90
37289;DHT22;23174;49.462;11.000;2023-06-01T06:54:44;19.60;99.90
37289;DHT22;23174;49.462;11.000;2023-06-01T06:56:44;19.70;99.90
37289;DHT22;23174;49.462;11.000;2023-06-01T06:58:45;19.70;99.90
37289;DHT22;23174;49.462;11.000;2023-06-01T07:00:45;19.70;99.90
37289;DHT22;23174;49.462;11.000;2023-06-01T07:02:46;19.80;99.90
37289;DHT22;23174;49.462;11.000;2023-06-01T07:04:49;19.80;99.90
37289;DHT22;23174;49.462;11.000;2023-06-01T07:06:50;19.90;99.90
37289;DHT22;23174;49.462;11.000;2023-06-01T07:08:52;20.00;99.90
37289;DHT22;23174;49.462;11.000;2023-06-01T07:10:53;20.00;99.90
37289;DHT22;23174;49.462;11.000;2023-06-01T07:12:58;19.60;99.90
37289;DHT22;23174;49.462;11.000;2023-06-01T07:14:59;19.60;99.90
37289;DHT22;23174;49.462;11.000;2023-06-01T07:17:00;19.60;99.90
37289;DHT22;23174;49.462;11.000;2023-06-01T07:19:01;19.60;99.90
37289;DHT22;23174;49.462;11.000;2023-06-01T07:21:01;19.60;99.90
37289;DHT22;23174;49.462;11.000;2023-06-01T07:23:02;19.70;99.90
37289;DHT22;23174;49.462;11.000;2023-06-01T07:25:02;19.70;99.90
37289;DHT22;23174;49.462;11.000;2023-06-01T07:27:03;19.70;99.90
37289;DHT22;23174;49.462;11.000;2023-06-01T07:29:05;19.80;99.90
37289;DHT22;23174;49.462;11.000;2023-06-01T07:31:06;19.90;99.90
37289;DHT22;23174;49.462;11.000;2023-06-01T07:33:07;20.00;99.90
37289;DHT22;23174;49.462;11.000;2023-06-01T07:35:08;20.10;99.90
37289;DHT22;23174;49.462;11.000;2023-06-01T07:37:09;20.20;99.90
37289;DHT22;23174;49.462;11.000;2023-06-01T07:39:10;20.30;99.90
37289;DHT22;23174;49.462;11.000;2023-06-01T07:41:11;20.30;99.90
37289;DHT22;23174;49.462;11.000;2023-06-01T07:43:12;20.30;99.90
37289;DHT22;23174;49.462;11.000;2023-06-01T07:45:12;20.40;99.90
37289;DHT22;23174;49.462;11.000;2023-06-01T07:47:13;20.50;99.90
37289;DHT22;23174;49.462;11.000;2023-06-01T07:49:14;20.70;99.90
37289;DHT22;23174;49.462;11.000;2023-06-01T07:51:15;20.70;99.90
37289;DHT22;23174;49.462;11.000;2023-06-01T07:53:16;20.60;99.90
37289;DHT22;23174;49.462;11.000;2023-06-01T07:55:18;20.60;99.90
37289;DHT22;23174;49.462;11.000;2023-06-01T07:57:18;20.70;99.90
37289;DHT22;23174;49.462;11.000;2023-06-01T07:59:19;20.80;99.70
37289;DHT22;23174;49.462;11.000;2023-06-01T08:01:21;20.90;99.90
37289;DHT22;23174;49.462;11.000;2023-06-01T08:03:22;20.90;99.90
37289;DHT22;23174;49.462;11.000;2023-06-01T08:05:26;20.90;99.60
37289;DHT22;23174;49.462;11.000;2023-06-01T08:07:26;20.80;99.80
37289;DHT22;23174;49.462;11.000;2023-06-01T08:09:28;20.80;99.90
37289;DHT22;23174;49.462;11.000;2023-06-01T08:11:28;20.80;99.90
37289;DHT22;23174;49.462;11.000;2023-06-01T08:13:29;21.00;99.90
37289;DHT22;23174;49.462;11.000;2023-06-01T08:15:29;21.00;99.90
37289;DHT22;23174;49.462;11.000;2023-06-01T08:17:31;21.10;99.60
37289;DHT22;23174;49.462;11.000;2023-06-01T08:19:31;21.10;99.40
37289;DHT22;23174;49.462;11.000;2023-06-01T08:21:32;21.20;99.40
37289;DHT22;23174;49.462;11.000;2023-06-01T08:23:32;21.40;99.40
37289;DHT22;23174;49.462;11.000;2023-06-01T08:25:34;21.50;98.80
37289;DHT22;23174;49.462;11.000;2023-06-01T08:27:35;21.40;99.10
37289;DHT22;23174;49.462;11.000;2023-06-01T08:29:35;21.30;99.40
37289;DHT22;23174;49.462;11.000;2023-06-01T08:31:36;21.20;99.50
37289;DHT22;23174;49.462;11.000;2023-06-01T08:33:37;21.30;99.80
37289;DHT22;23174;49.462;11.000;2023-06-01T08:35:37;21.40;99.20
37289;DHT22;23174;49.462;11.000;2023-06-01T08:37:38;21.40;98.00
37289;DHT22;23174;49.462;11.000;2023-06-01T08:39:38;21.40;97.80
37289;DHT22;23174;49.462;11.000;2023-06-01T08:41:49;21.50;98.30
37289;DHT22;23174;49.462;11.000;2023-06-01T08:43:58;21.70;97.90
37289;DHT22;23174;49.462;11.000;2023-06-01T08:45:58;21.60;97.20
37289;DHT22;23174;49.462;11.000;2023-06-01T08:48:02;21.50;96.70
37289;DHT22;23174;49.462;11.000;2023-06-01T08:50:05;21.50;96.60
37289;DHT22;23174;49.462;11.000;2023-06-01T08:52:12;21.60;96.90
37289;DHT22;23174;49.462;11.000;2023-06-01T08:54:13;21.70;96.50
37289;DHT22;23174;49.462;11.000;2023-06-01T08:56:13;21.70;95.40
37289;DHT22;23174;49.462;11.000;2023-06-01T08:58:14;21.70;94.90
37289;DHT22;23174;49.462;11.000;2023-06-01T09:00:16;21.70;94.10
37289;DHT22;23174;49.462;11.000;2023-06-01T09:02:17;21.80;94.70
37289;DHT22;23174;49.462;11.000;2023-06-01T09:04:17;21.90;94.90
37289;DHT22;23174;49.462;11.000;2023-06-01T09:06:18;21.90;95.10
37289;DHT22;23174;49.462;11.000;2023-06-01T09:08:18;22.00;92.80
37289;DHT22;23174;49.462;11.000;2023-06-01T09:10:23;22.10;93.50
37289;DHT22;23174;49.462;11.000;2023-06-01T09:12:27;22.20;94.00
37289;DHT22;23174;49.462;11.000;2023-06-01T09:14:31;22.20;93.00
37289;DHT22;23174;49.462;11.000;2023-06-01T09:16:38;22.30;93.10
37289;DHT22;23174;49.462;11.000;2023-06-01T09:18:54;22.50;93.00
37289;DHT22;23174;49.462;11.000;2023-06-01T09:21:10;22.40;93.10
37289;DHT22;23174;49.462;11.000;2023-06-01T09:23:11;22.20;93.20
37289;DHT22;23174;49.462;11.000;2023-06-01T09:25:30;22.30;92.90
37289;DHT22;23174;49.462;11.000;2023-06-01T09:27:45;22.60;92.80
37289;DHT22;23174;49.462;11.000;2023-06-01T09:31:50;22.60;90.70
37289;DHT22;23174;49.462;11.000;2023-06-01T09:34:00;22.70;90.70
37289;DHT22;23174;49.462;11.000;2023-06-01T09:36:01;22.80;90.60
37289;DHT22;23174;49.462;11.000;2023-06-01T09:38:02;22.80;90.40
37289;DHT22;23174;49.462;11.000;2023-06-01T09:40:19;22.90;90.30
37289;DHT22;23174;49.462;11.000;2023-06-01T09:42:31;22.90;90.00
37289;DHT22;23174;49.462;11.000;2023-06-01T09:44:37;22.90;90.60
37289;DHT22;23174;49.462;11.000;2023-06-01T09:46:48;22.90;89.20
37289;DHT22;23174;49.462;11.000;2023-06-01T09:49:04;22.90;89.20
37289;DHT22;23174;49.462;11.000;2023-06-01T09:51:21;22.90;87.90
37289;DHT22;23174;49.462;11.000;2023-06-01T09:53:23;22.90;88.00
37289;DHT22;23174;49.462;11.000;2023-06-01T09:55:23;22.90;88.20
37289;DHT22;23174;49.462;11.000;2023-06-01T09:57:26;23.00;88.50
37289;DHT22;23174;49.462;11.000;2023-06-01T09:59:28;23.10;87.20
37289;DHT22;23174;49.462;11.000;2023-06-01T10:01:30;23.20;86.90
37289;DHT22;23174;49.462;11.000;2023-06-01T10:03:31;23.30;88.80
37289;DHT22;23174;49.462;11.000;2023-06-01T10:05:33;23.40;86.20
37289;DHT22;23174;49.462;11.000;2023-06-01T10:07:35;23.20;86.60
37289;DHT22;23174;49.462;11.000;2023-06-01T10:09:38;23.10;87.90
37289;DHT22;23174;49.462;11.000;2023-06-01T10:11:39;23.20;86.70
37289;DHT22;23174;49.462;11.000;2023-06-01T10:13:40;23.30;85.70
37289;DHT22;23174;49.462;11.000;2023-06-01T10:15:41;23.30;85.30
37289;DHT22;23174;49.462;11.000;2023-06-01T10:17:42;23.30;87.10
37289;DHT22;23174;49.462;11.000;2023-06-01T10:19:44;23.40;87.00
37289;DHT22;23174;49.462;11.000;2023-06-01T10:21:46;23.30;86.20
37289;DHT22;23174;49.462;11.000;2023-06-01T10:23:47;23.30;85.30
37289;DHT22;23174;49.462;11.000;2023-06-01T10:25:49;23.30;86.40
37289;DHT22;23174;49.462;11.000;2023-06-01T10:28:02;23.40;86.00
37289;DHT22;23174;49.462;11.000;2023-06-01T10:30:07;23.40;85.30
37289;DHT22;23174;49.462;11.000;2023-06-01T10:34:38;23.40;83.90
37289;DHT22;23174;49.462;11.000;2023-06-01T10:39:22;23.30;84.50
37289;DHT22;23174;49.462;11.000;2023-06-01T10:41:28;23.30;84.20
37289;DHT22;23174;49.462;11.000;2023-06-01T10:45:39;23.30;84.90
37289;DHT22;23174;49.462;11.000;2023-06-01T10:50:06;23.40;85.20
37289;DHT22;23174;49.462;11.000;2023-06-01T10:52:29;23.50;85.30
37289;DHT22;23174;49.462;11.000;2023-06-01T10:54:30;23.50;84.60
37289;DHT22;23174;49.462;11.000;2023-06-01T10:56:31;23.50;84.50
37289;DHT22;23174;49.462;11.000;2023-06-01T10:58:32;23.50;83.20
37289;DHT22;23174;49.462;11.000;2023-06-01T11:00:38;23.50;83.40
37289;DHT22;23174;49.462;11.000;2023-06-01T11:07:37;23.40;80.90
37289;DHT22;23174;49.462;11.000;2023-06-01T11:09:44;23.50;80.00
37289;DHT22;23174;49.462;11.000;2023-06-01T11:14:09;23.40;82.00
37289;DHT22;23174;49.462;11.000;2023-06-01T11:20:40;23.60;87.60
37289;DHT22;23174;49.462;11.000;2023-06-01T11:22:41;23.60;87.70
37289;DHT22;23174;49.462;11.000;2023-06-01T11:24:43;23.50;88.10
37289;DHT22;23174;49.462;11.000;2023-06-01T11:26:47;23.50;87.80
37289;DHT22;23174;49.462;11.000;2023-06-01T11:28:48;23.40;87.80
37289;DHT22;23174;49.462;11.000;2023-06-01T11:30:50;23.40;89.00
37289;DHT22;23174;49.462;11.000;2023-06-01T11:32:51;23.60;88.70
37289;DHT22;23174;49.462;11.000;2023-06-01T11:34:52;23.70;87.90
37289;DHT22;23174;49.462;11.000;2023-06-01T11:36:54;23.70;88.60
37289;DHT22;23174;49.462;11.000;2023-06-01T11:38:56;23.70;87.50
37289;DHT22;23174;49.462;11.000;2023-06-01T11:41:00;23.60;87.20
37289;DHT22;23174;49.462;11.000;2023-06-01T11:43:01;23.60;88.10
37289;DHT22;23174;49.462;11.000;2023-06-01T11:45:02;23.50;88.50
37289;DHT22;23174;49.462;11.000;2023-06-01T11:47:06;23.60;88.40
37289;DHT22;23174;49.462;11.000;2023-06-01T11:49:07;23.70;88.30
37289;DHT22;23174;49.462;11.000;2023-06-01T11:51:09;23.80;88.20
37289;DHT22;23174;49.462;11.000;2023-06-01T11:53:09;23.90;88.70
37289;DHT22;23174;49.462;11.000;2023-06-01T11:55:12;24.00;88.30
37289;DHT22;23174;49.462;11.000;2023-06-01T11:57:14;23.90;88.50
37289;DHT22;23174;49.462;11.000;2023-06-01T11:59:14;23.90;88.40
37289;DHT22;23174;49.462;11.000;2023-06-01T12:01:15;23.80;88.10
37289;DHT22;23174;49.462;11.000;2023-06-01T12:03:17;23.80;88.40
37289;DHT22;23174;49.462;11.000;2023-06-01T12:05:17;23.90;88.10
37289;DHT22;23174;49.462;11.000;2023-06-01T12:07:18;23.90;87.80
37289;DHT22;23174;49.462;11.000;2023-06-01T12:09:19;23.90;87.40
37289;DHT22;23174;49.462;11.000;2023-06-01T12:11:24;23.90;87.60
37289;DHT22;23174;49.462;11.000;2023-06-01T12:13:26;24.00;87.60
37289;DHT22;23174;49.462;11.000;2023-06-01T12:15:27;24.00;86.90
37289;DHT22;23174;49.462;11.000;2023-06-01T12:17:48;24.20;87.00
37289;DHT22;23174;49.462;11.000;2023-06-01T12:19:50;24.10;86.70
37289;DHT22;23174;49.462;11.000;2023-06-01T12:21:52;24.10;85.70
37289;DHT22;23174;49.462;11.000;2023-06-01T12:23:54;24.00;86.00
37289;DHT22;23174;49.462;11.000;2023-06-01T12:25:56;24.20;85.60
37289;DHT22;23174;49.462;11.000;2023-06-01T12:28:07;24.20;85.10
37289;DHT22;23174;49.462;11.000;2023-06-01T12:30:20;24.20;86.40
37289;DHT22;23174;49.462;11.000;2023-06-01T12:32:22;24.10;86.40
37289;DHT22;23174;49.462;11.000;2023-06-01T12:34:23;24.00;84.90
37289;DHT22;23174;49.462;11.000;2023-06-01T12:36:29;24.00;85.10
37289;DHT22;23174;49.462;11.000;2023-06-01T12:38:37;24.20;85.40
37289;DHT22;23174;49.462;11.000;2023-06-01T12:40:38;24.30;84.40
37289;DHT22;23174;49.462;11.000;2023-06-01T12:42:40;24.40;84.90
37289;DHT22;23174;49.462;11.000;2023-06-01T12:44:41;24.50;84.30
37289;DHT22;23174;49.462;11.000;2023-06-01T12:46:42;24.50;83.60
37289;DHT22;23174;49.462;11.000;2023-06-01T12:48:42;24.40;82.90
37289;DHT22;23174;49.462;11.000;2023-06-01T12:50:43;24.30;84.40
37289;DHT22;23174;49.462;11.000;2023-06-01T12:52:45;24.30;83.50
37289;DHT22;23174;49.462;11.000;2023-06-01T12:54:45;24.30;83.40
37289;DHT22;23174;49.462;11.000;2023-06-01T12:56:50;24.20;83.30
37289;DHT22;23174;49.462;11.000;2023-06-01T12:58:51;24.20;84.00
37289;DHT22;23174;49.462;11.000;2023-06-01T13:00:51;24.20;83.70
37289;DHT22;23174;49.462;11.000;2023-06-01T13:02:52;24.30;81.70
37289;DHT22;23174;49.462;11.000;2023-06-01T13:04:52;24.40;82.10
37289;DHT22;23174;49.462;11.000;2023-06-01T13:06:53;24.40;82.00
37289;DHT22;23174;49.462;11.000;2023-06-01T13:08:54;24.40;81.90
37289;DHT22;23174;49.462;11.000;2023-06-01T13:10:54;24.40;82.00